createdAt,value
2018-08-18T00:04:20.383Z,16.00
2018-08-18T00:09:13.638Z,15.90
2018-08-18T00:14:06.926Z,15.80
2018-08-18T00:19:01.147Z,15.70
2018-08-18T00:24:03.944Z,15.70
2018-08-18T00:28:57.188Z,15.60
2018-08-18T00:33:50.695Z,15.50
2018-08-18T00:38:43.946Z,15.40
2018-08-18T00:43:37.208Z,15.20
2018-08-18T00:48:31.112Z,15.20
2018-08-18T00:53:24.468Z,15.10
2018-08-18T00:58:26.672Z,14.30
2018-08-18T01:03:19.965Z,14.90
2018-08-18T01:08:13.228Z,14.90
2018-08-18T01:13:07.199Z,14.80
2018-08-18T01:18:00.513Z,14.80
2018-08-18T01:23:00.882Z,14.80
2018-08-18T01:27:54.170Z,14.80
2018-08-18T01:32:47.770Z,14.70
2018-08-18T01:37:41.056Z,14.80
2018-08-18T01:42:34.455Z,14.70
2018-08-18T01:47:27.753Z,14.70
2018-08-18T01:52:24.345Z,14.80
2018-08-18T01:57:19.423Z,14.90
2018-08-18T02:02:16.678Z,14.90
2018-08-18T02:07:31.655Z,14.90
2018-08-18T02:12:25.364Z,14.90
2018-08-18T02:17:28.607Z,14.90
2018-08-18T02:22:22.959Z,14.90
2018-08-18T02:27:16.188Z,14.80
2018-08-18T02:32:27.128Z,14.80
2018-08-18T02:37:20.411Z,14.80
2018-08-18T02:42:13.735Z,14.80
2018-08-18T02:47:07.017Z,14.80
2018-08-18T02:52:00.447Z,14.80
2018-08-18T02:56:53.778Z,14.70
2018-08-18T03:01:47.092Z,14.70
2018-08-18T03:06:40.772Z,14.50
2018-08-18T03:11:38.664Z,14.50
2018-08-18T03:16:32.528Z,14.30
2018-08-18T03:21:31.938Z,14.20
2018-08-18T03:26:31.349Z,13.90
2018-08-18T03:31:24.583Z,14.20
2018-08-18T03:36:28.698Z,14.20
2018-08-18T03:41:23.080Z,14.20
2018-08-18T03:46:16.988Z,14.20
2018-08-18T03:51:10.974Z,14.20
2018-08-18T03:56:04.274Z,14.30
2018-08-18T04:00:57.548Z,14.20
2018-08-18T04:05:50.812Z,14.20
2018-08-18T04:10:50.860Z,14.20
2018-08-18T04:15:44.680Z,14.10
2018-08-18T04:20:37.949Z,14.10
2018-08-18T04:25:31.181Z,14.10
2018-08-18T04:30:25.122Z,14.10
2018-08-18T04:35:20.990Z,14.10
2018-08-18T04:40:14.169Z,14.10
2018-08-18T04:45:07.495Z,14.10
2018-08-18T04:50:00.752Z,14.10
2018-08-18T04:54:54.011Z,14.20
2018-08-18T04:59:47.268Z,14.30
2018-08-18T05:04:40.520Z,14.40
2018-08-18T05:09:33.769Z,14.60
2018-08-18T05:14:26.992Z,14.70
2018-08-18T05:19:20.301Z,14.90
2018-08-18T05:24:23.608Z,15.10
2018-08-18T05:29:17.625Z,15.30
2018-08-18T05:34:10.915Z,15.50
2018-08-18T05:39:06.087Z,15.80
2018-08-18T05:43:59.317Z,17.00
2018-08-18T05:48:54.376Z,18.50
2018-08-18T05:53:47.656Z,20.70
2018-08-18T05:58:52.458Z,22.10
2018-08-18T06:03:45.797Z,23.40
2018-08-18T06:08:39.044Z,24.10
2018-08-18T06:13:32.346Z,24.90
2018-08-18T06:18:25.595Z,25.00
2018-08-18T06:23:18.848Z,25.40
2018-08-18T06:28:12.101Z,27.20
2018-08-18T06:33:05.394Z,27.60
2018-08-18T06:38:00.815Z,26.90
2018-08-18T06:42:54.636Z,26.30
2018-08-18T06:47:47.964Z,26.60
2018-08-18T06:52:43.351Z,26.10
2018-08-18T06:57:43.337Z,26.80
2018-08-18T07:02:37.085Z,27.80
2018-08-18T07:07:31.775Z,28.10
2018-08-18T07:12:25.023Z,27.90
2018-08-18T07:17:18.268Z,30.30
2018-08-18T07:22:15.717Z,32.30
2018-08-18T07:27:09.546Z,30.90
2018-08-18T07:32:02.824Z,30.80
2018-08-18T07:36:56.105Z,30.30
2018-08-18T07:41:49.499Z,29.70
2018-08-18T07:46:43.447Z,30.70
2018-08-18T07:51:36.724Z,31.60
2018-08-18T07:56:29.994Z,31.90
2018-08-18T08:01:24.134Z,31.80
2018-08-18T08:06:17.357Z,31.10
2018-08-18T08:11:13.011Z,31.10
2018-08-18T08:16:06.275Z,30.60
2018-08-18T08:20:59.563Z,31.20
2018-08-18T08:25:52.875Z,30.80
2018-08-18T08:30:46.162Z,31.80
2018-08-18T08:35:39.408Z,32.70
2018-08-18T08:40:32.702Z,33.40
2018-08-18T08:45:25.989Z,32.60
2018-08-18T08:50:22.022Z,33.00
2018-08-18T08:55:17.052Z,33.20
2018-08-18T09:00:11.113Z,34.40
2018-08-18T09:05:05.466Z,35.90
2018-08-18T09:09:58.801Z,33.90
2018-08-18T09:14:52.116Z,34.70
2018-08-18T09:19:46.054Z,33.70
2018-08-18T09:24:40.030Z,34.40
2018-08-18T09:29:38.901Z,33.90
2018-08-18T09:34:38.107Z,34.60
2018-08-18T09:39:33.692Z,34.40
2018-08-18T09:44:31.845Z,34.10
2018-08-18T09:49:27.515Z,33.70
2018-08-18T09:54:20.892Z,34.00
2018-08-18T09:59:14.256Z,33.50
2018-08-18T10:04:07.550Z,33.60
2018-08-18T10:09:00.873Z,32.80
2018-08-18T10:13:54.325Z,31.90
2018-08-18T10:18:48.294Z,31.70
2018-08-18T10:28:30.917Z,30.50
2018-08-18T10:33:24.302Z,29.00
2018-08-18T10:38:19.294Z,28.50
2018-08-18T10:43:12.567Z,28.20
2018-08-18T10:48:06.186Z,28.00
2018-08-18T10:53:00.338Z,27.80
2018-08-18T10:58:04.233Z,27.40
2018-08-18T11:02:59.861Z,27.50
2018-08-18T11:08:00.406Z,27.70
2018-08-18T11:12:53.742Z,27.40
2018-08-18T11:17:47.034Z,27.30
2018-08-18T11:23:13.624Z,27.40
2018-08-18T11:28:08.895Z,27.10
2018-08-18T11:33:03.371Z,27.00
2018-08-18T11:38:05.745Z,26.70
2018-08-18T11:43:04.449Z,26.80
2018-08-18T11:48:08.395Z,26.90
2018-08-18T11:53:03.930Z,26.90
2018-08-18T11:57:59.704Z,27.20
2018-08-18T12:02:54.434Z,27.10
2018-08-18T12:07:50.601Z,26.90
2018-08-18T12:12:43.876Z,27.10
2018-08-18T12:17:54.257Z,27.20
2018-08-18T12:22:47.505Z,27.40
2018-08-18T12:27:41.719Z,27.60
2018-08-18T12:32:35.003Z,27.60
2018-08-18T12:37:28.390Z,26.70
2018-08-18T12:42:28.588Z,27.00
2018-08-18T12:47:21.866Z,27.40
2018-08-18T12:52:15.153Z,27.40
2018-08-18T12:57:08.384Z,27.40
2018-08-18T13:02:01.689Z,27.70
2018-08-18T13:06:55.707Z,27.80
2018-08-18T13:11:50.444Z,27.70
2018-08-18T13:16:44.503Z,28.10
2018-08-18T13:21:38.371Z,28.10
2018-08-18T13:26:32.424Z,28.10
2018-08-18T13:31:42.637Z,27.90
2018-08-18T13:36:38.506Z,27.90
2018-08-18T13:41:32.435Z,27.70
2018-08-18T13:46:47.885Z,28.10
2018-08-18T13:51:41.117Z,28.30
2018-08-18T13:56:34.615Z,28.10
2018-08-18T14:01:38.091Z,28.30
2018-08-18T14:06:39.371Z,28.20
2018-08-18T14:11:33.402Z,28.20
2018-08-18T14:16:27.309Z,28.30
2018-08-18T14:21:20.617Z,28.20
2018-08-18T14:26:15.088Z,28.60
2018-08-18T14:31:08.424Z,28.50
2018-08-18T14:36:05.991Z,28.40
2018-08-18T14:40:59.378Z,28.10
2018-08-18T14:45:52.649Z,28.10
2018-08-18T14:50:46.919Z,27.80
2018-08-18T14:55:40.176Z,27.80
2018-08-18T15:00:34.430Z,27.60
2018-08-18T15:05:27.764Z,27.60
2018-08-18T15:10:36.974Z,27.60
2018-08-18T15:15:31.292Z,27.70
2018-08-18T15:20:24.594Z,27.50
2018-08-18T15:25:17.820Z,27.20
2018-08-18T15:30:11.412Z,27.10
2018-08-18T15:35:04.715Z,27.20
2018-08-18T15:39:57.990Z,27.20
2018-08-18T15:45:00.493Z,27.30
2018-08-18T15:49:53.756Z,27.40
2018-08-18T15:54:47.049Z,27.10
2018-08-18T15:59:40.289Z,26.70
2018-08-18T16:04:33.595Z,26.60
2018-08-18T16:09:26.882Z,26.60
2018-08-18T16:14:20.396Z,26.50
2018-08-18T16:19:14.081Z,26.40
2018-08-18T16:24:09.128Z,26.30
2018-08-18T16:29:02.414Z,25.30
2018-08-18T16:33:56.150Z,26.10
2018-08-18T16:38:49.637Z,26.00
2018-08-18T16:43:43.504Z,25.90
2018-08-18T16:48:36.783Z,25.90
2018-08-18T16:53:30.139Z,25.80
2018-08-18T16:58:23.434Z,25.70
2018-08-18T17:03:19.695Z,25.60
2018-08-18T17:08:12.935Z,25.50
2018-08-18T17:13:06.396Z,25.40
2018-08-18T17:17:59.710Z,25.30
2018-08-18T17:22:53.002Z,25.20
2018-08-18T17:27:46.226Z,25.10
2018-08-18T17:32:39.547Z,25.00
2018-08-18T17:37:32.812Z,24.80
2018-08-18T17:42:26.121Z,24.70
2018-08-18T17:47:19.456Z,24.50
2018-08-18T17:52:13.756Z,24.40
2018-08-18T17:57:07.926Z,24.10
2018-08-18T18:02:14.753Z,23.90
2018-08-18T18:07:09.803Z,23.80
2018-08-18T18:12:32.575Z,23.60
2018-08-18T18:17:26.346Z,23.50
2018-08-18T18:22:19.875Z,23.30
2018-08-18T18:27:13.158Z,23.10
2018-08-18T18:32:07.323Z,23.00
2018-08-18T18:37:01.228Z,22.80
2018-08-18T18:41:54.475Z,22.60
2018-08-18T18:46:47.707Z,22.50
2018-08-18T18:51:40.995Z,22.30
2018-08-18T18:56:34.385Z,22.10
2018-08-18T19:01:27.645Z,22.00
2018-08-18T19:06:21.058Z,21.90
2018-08-18T19:11:14.354Z,21.60
2018-08-18T19:16:08.326Z,21.50
2018-08-18T19:21:01.602Z,21.40
2018-08-18T19:25:54.829Z,21.40
2018-08-18T19:30:48.073Z,21.40
2018-08-18T19:35:43.358Z,21.40
2018-08-18T19:40:37.887Z,21.30
2018-08-18T19:45:31.140Z,21.30
2018-08-18T19:50:24.395Z,21.10
2018-08-18T19:55:17.648Z,21.00
2018-08-18T20:00:18.270Z,20.90
2018-08-18T20:05:11.551Z,20.80
2018-08-18T20:10:04.874Z,20.80
2018-08-18T20:14:58.239Z,20.70
2018-08-18T20:19:51.468Z,20.70
2018-08-18T20:24:44.778Z,20.60
2018-08-18T20:29:38.011Z,20.50
2018-08-18T20:34:31.354Z,20.30
2018-08-18T20:39:27.204Z,20.30
2018-08-18T20:44:20.460Z,20.10
2018-08-18T20:49:15.652Z,20.10
2018-08-18T20:54:08.902Z,20.10
2018-08-18T20:59:02.918Z,19.90
2018-08-18T21:03:56.185Z,19.80
2018-08-18T21:08:49.485Z,19.80
2018-08-18T21:13:45.343Z,19.70
2018-08-18T21:18:38.620Z,20.10
2018-08-18T21:23:31.892Z,19.50
2018-08-18T21:28:26.067Z,19.50
2018-08-18T21:33:19.379Z,19.50
2018-08-18T21:38:12.666Z,19.40
2018-08-18T21:43:11.220Z,19.30
2018-08-18T21:48:05.851Z,19.20
2018-08-18T21:52:59.108Z,19.20
2018-08-18T23:02:43.542Z,18.00
2018-08-18T23:07:36.809Z,18.00
2018-08-18T23:12:30.033Z,18.00
2018-08-18T23:17:23.292Z,17.90
2018-08-18T23:22:34.204Z,17.90
2018-08-18T23:27:28.624Z,17.80
2018-08-18T23:32:23.844Z,17.80
2018-08-18T23:37:18.961Z,17.70
